San Francisco International Airport
KSFO : now visible

Airfield :











YOU CAN JOIN US ON...

 
LOGIN :

Register | Disclaimer

   EN    FR    IT 

 









Legend :    VFR   Marginal VFR   IFR   Intensive IFR   Very Intensive IFR
Visi :
Ceiling :
>= 8 km
>= 3000ft
5 to 8 km
1000 to 3000 ft
1500m to 5 km
500 to 1000 ft
800 to 1500m
200 to 500 ft
< 800m
< 200 ft
Symbols :   Thunderstorms  Fog  Heavy snow  Heavy precipitations  Wind > 20 kt






- Airport Elevation : 13 ft
- IATA code : SFO


KSFO - San Francisco International

CURRENT METAR :
  • 100256Z 27015KT 10SM FEW006 15/08 A2987 RMK AO2 PK WND 28027/0200 SLP113 FOG IN GAP W T01500078 55005

EXPIRED METARs :
  • 100248Z 27015KT 10SM FEW006 15/08 A2986 RMK AO2 PK WND 28027/0200 FOG IN GAP W T01500078
  • 100156Z 28022KT 10SM FEW200 16/08 A2986 RMK AO2 PK WND 28030/0130 SLP111 T01610078
  • 100056Z 27023G32KT 10SM FEW200 18/07 A2986 RMK AO2 PK WND 28032/0050 SLP113 T01780072

TAF KSFO
Valid from the 10 at 03:00 until the 11 at 06:00 UTC


100301Z 1003/1106 27015KT P6SM FEW006
FM100800 28011KT P6SM FEW030
FM101400 VRB03KT P6SM FEW300 WS020/02020KT
FM101700 35007KT P6SM SKC
FM102100 28017KT P6SM SKC
FM110300 25010KT P6SM SKC
KZOA FIR / North America



MET'MAP, your aeronautical weather chart ! - Copyright ORBIFLY December 2007 - Disclaimer

ORBIFLY MET'MAP TEAM :

Programming & Development : Alexandra Zaïnal
Concept & original design : Baudouin d'Aumeries
Assistance for programming : Marc-Olivier Méhu
Technical & hardware support : Manuel Goepfert

Contact : metmap@orbifly.com




SOURCES & CREDITS :

   NOAA       Earth
Advisory